Time;durP1;ratioP1;P1;durP2;ratioP2;P2;SDS_P1;SDS_P2;PMS_P1;PMS_P2;Temp;Humidity;BMP_temperature;BMP_pressure;BME280_temperature;BME280_humidity;BME280_pressure;Samples;Min_cycle;Max_cycle;Signal;HPM_P1;HPM_P2
2022/03/26 00:01:38;;;;;;;;;;;13.60;72.70;;;;;;4301364;33;45101;-84
2022/03/26 00:04:05;;;;;;;;;;;13.60;73.00;;;;;;4289120;33;44079;-85
2022/03/26 00:06:32;;;;;;;;;;;13.50;73.10;;;;;;4288804;33;42903;-85
2022/03/26 00:08:59;;;;;;;;;;;13.50;73.60;;;;;;4288761;33;45757;-84
2022/03/26 00:11:26;;;;;;;;;;;13.50;73.30;;;;;;4301760;33;43331;-84
2022/03/26 00:13:54;;;;;;;;;;;13.50;73.00;;;;;;4301234;33;42920;-84
2022/03/26 00:16:21;;;;;;;;;;;13.40;73.10;;;;;;4301500;33;43289;-84
2022/03/26 00:18:48;;;;;;;;;;;13.40;73.10;;;;;;4288284;33;42757;-84
2022/03/26 00:21:15;;;;;;;;;;;13.40;73.10;;;;;;4288709;33;43885;-84
2022/03/26 00:23:42;;;;;;;;;;;13.40;73.30;;;;;;4301586;33;43923;-84
2022/03/26 00:26:11;;;;;;;;;;;13.50;72.90;;;;;;4300034;33;45927;-84
2022/03/26 00:28:38;;;;;;;;;;;13.40;72.70;;;;;;4301237;33;44605;-84
2022/03/26 00:31:05;;;;;;;;;;;13.40;73.20;;;;;;4288281;33;44067;-85
2022/03/26 00:33:33;;;;;;;;;;;13.40;74.20;;;;;;4300325;33;42580;-84
2022/03/26 00:36:00;;;;;;;;;;;13.30;73.70;;;;;;4288487;33;44701;-84
2022/03/26 00:38:27;;;;;;;;;;;13.30;74.10;;;;;;4301505;33;44373;-84
2022/03/26 00:40:54;;;;;;;;;;;13.20;74.60;;;;;;4301565;33;44257;-84
2022/03/26 00:43:21;;;;;;;;;;;13.20;74.40;;;;;;4301358;33;44731;-84
2022/03/26 00:45:48;;;;;;;;;;;13.20;74.80;;;;;;4301267;33;42548;-84
2022/03/26 00:48:15;;;;;;;;;;;13.20;74.70;;;;;;4303093;33;45051;-83
2022/03/26 00:50:42;;;;;;;;;;;13.20;74.10;;;;;;4306177;33;44162;-84
2022/03/26 00:53:09;;;;;;;;;;;13.20;73.90;;;;;;4292912;33;45098;-84
2022/03/26 00:55:36;;;;;;;;;;;13.10;73.90;;;;;;4306192;33;43280;-84
2022/03/26 00:58:04;;;;;;;;;;;13.10;74.00;;;;;;4305963;33;43427;-84
2022/03/26 01:00:31;;;;;;;;;;;13.10;73.80;;;;;;4304886;33;42974;-84
2022/03/26 01:02:58;;;;;;;;;;;13.10;73.70;;;;;;4305588;33;43544;-84
2022/03/26 01:05:25;;;;;;;;;;;13.10;74.30;;;;;;4304970;33;43881;-84
2022/03/26 01:07:52;;;;;;;;;;;13.10;74.20;;;;;;4305662;33;43494;-83
2022/03/26 01:10:19;;;;;;;;;;;13.00;73.80;;;;;;4305210;33;43990;-84
2022/03/26 01:12:47;;;;;;;;;;;13.00;74.10;;;;;;4305499;33;44436;-84
2022/03/26 01:15:14;;;;;;;;;;;13.10;74.40;;;;;;4305945;33;43497;-84
2022/03/26 01:17:41;;;;;;;;;;;13.10;74.20;;;;;;4292625;33;42533;-84
2022/03/26 01:20:08;;;;;;;;;;;13.00;74.50;;;;;;4306144;33;43905;-85
2022/03/26 01:22:35;;;;;;;;;;;13.10;73.90;;;;;;4304497;33;42819;-84
2022/03/26 01:25:03;;;;;;;;;;;13.10;74.00;;;;;;4305732;33;43630;-84
2022/03/26 01:27:30;;;;;;;;;;;13.00;74.10;;;;;;4293056;33;44105;-84
2022/03/26 01:29:57;;;;;;;;;;;13.00;73.90;;;;;;4293124;33;44215;-84
2022/03/26 01:32:24;;;;;;;;;;;13.10;74.20;;;;;;4292958;33;44813;-84
2022/03/26 01:34:51;;;;;;;;;;;13.00;74.30;;;;;;4305351;33;42501;-84
2022/03/26 01:37:18;;;;;;;;;;;13.00;74.10;;;;;;4292439;33;42849;-84
2022/03/26 01:39:45;;;;;;;;;;;13.00;74.30;;;;;;4292719;33;43963;-84
2022/03/26 01:42:13;;;;;;;;;;;13.00;74.30;;;;;;4304636;33;46243;-84
2022/03/26 01:44:40;;;;;;;;;;;13.00;74.60;;;;;;4305856;33;43067;-84
2022/03/26 01:47:07;;;;;;;;;;;12.90;74.40;;;;;;4292815;33;43251;-84
2022/03/26 01:49:34;;;;;;;;;;;12.90;74.30;;;;;;4305432;33;43404;-83
2022/03/26 01:52:03;;;;;;;;;;;13.00;74.50;;;;;;4305541;33;43904;-83
2022/03/26 01:54:31;;;;;;;;;;;13.00;74.50;;;;;;4305438;33;43748;-84
2022/03/26 01:56:58;;;;;;;;;;;13.00;74.40;;;;;;4305360;33;42890;-83
2022/03/26 01:59:27;;;;;;;;;;;13.00;74.30;;;;;;4291621;33;43188;-84
2022/03/26 02:01:54;;;;;;;;;;;13.00;74.20;;;;;;4302725;33;43415;-84
2022/03/26 02:04:21;;;;;;;;;;;12.90;74.00;;;;;;4301892;33;44240;-84
2022/03/26 02:06:49;;;;;;;;;;;13.00;73.90;;;;;;4303523;33;44199;-84
2022/03/26 02:09:16;;;;;;;;;;;12.90;74.00;;;;;;4290473;33;45941;-84
2022/03/26 02:11:44;;;;;;;;;;;12.90;74.20;;;;;;4301750;33;44811;-83
2022/03/26 02:14:12;;;;;;;;;;;12.90;74.20;;;;;;4290116;33;45833;-84
2022/03/26 02:16:40;;;;;;;;;;;12.90;74.40;;;;;;4302818;33;44233;-84
2022/03/26 02:19:09;;;;;;;;;;;12.90;74.00;;;;;;4303016;33;44359;-84
2022/03/26 02:21:37;;;;;;;;;;;12.90;74.20;;;;;;4303258;33;44215;-84
2022/03/26 02:24:06;;;;;;;;;;;12.90;74.20;;;;;;4302079;33;44052;-84
2022/03/26 02:26:33;;;;;;;;;;;12.80;74.30;;;;;;4303105;33;42332;-83
2022/03/26 02:29:04;;;;;;;;;;;12.90;74.80;;;;;;4302763;33;43595;-84
2022/03/26 02:31:31;;;;;;;;;;;12.80;74.40;;;;;;4303330;33;44223;-84
2022/03/26 02:33:58;;;;;;;;;;;12.70;74.60;;;;;;4302732;33;43429;-83
2022/03/26 02:36:25;;;;;;;;;;;12.70;74.50;;;;;;4289656;33;43853;-84
2022/03/26 02:38:52;;;;;;;;;;;12.70;75.10;;;;;;4301755;33;44094;-83
2022/03/26 02:41:19;;;;;;;;;;;12.60;75.20;;;;;;4302900;33;43048;-84
2022/03/26 02:43:46;;;;;;;;;;;12.60;75.30;;;;;;4301848;33;42850;-83
2022/03/26 02:46:13;;;;;;;;;;;12.50;75.70;;;;;;4301743;33;45846;-83
2022/03/26 02:48:43;;;;;;;;;;;12.50;75.90;;;;;;4301420;33;43429;-83
2022/03/26 02:51:11;;;;;;;;;;;12.60;76.10;;;;;;4302017;33;43983;-83
2022/03/26 02:53:38;;;;;;;;;;;12.50;76.20;;;;;;4302753;33;42661;-84
2022/03/26 02:56:05;;;;;;;;;;;12.50;76.20;;;;;;4289281;33;43649;-83
2022/03/26 02:58:32;;;;;;;;;;;12.50;76.00;;;;;;4289284;33;44250;-84
2022/03/26 03:00:59;;;;;;;;;;;12.50;76.60;;;;;;4301230;33;44915;-83
2022/03/26 03:03:26;;;;;;;;;;;12.50;76.00;;;;;;4302326;33;42697;-84
2022/03/26 03:05:54;;;;;;;;;;;12.40;76.00;;;;;;4301430;33;43785;-83
2022/03/26 03:08:22;;;;;;;;;;;12.50;76.00;;;;;;4289072;33;43313;-83
2022/03/26 03:10:49;;;;;;;;;;;12.40;76.00;;;;;;4301803;33;44078;-83
2022/03/26 03:13:21;;;;;;;;;;;12.40;75.90;;;;;;4300418;33;44127;-84
2022/03/26 03:15:48;;;;;;;;;;;12.30;75.60;;;;;;4301264;33;43328;-84
2022/03/26 03:18:16;;;;;;;;;;;12.20;75.80;;;;;;4302269;33;44067;-83
2022/03/26 03:20:43;;;;;;;;;;;12.20;76.00;;;;;;4302378;33;43323;-83
2022/03/26 03:23:11;;;;;;;;;;;12.20;76.40;;;;;;4301220;33;42943;-83
2022/03/26 03:25:38;;;;;;;;;;;12.10;76.40;;;;;;4302265;33;43189;-83
2022/03/26 03:28:06;;;;;;;;;;;12.10;76.90;;;;;;4302003;33;43131;-83
2022/03/26 03:30:33;;;;;;;;;;;12.00;77.10;;;;;;4288794;33;43263;-83
2022/03/26 03:33:00;;;;;;;;;;;12.00;77.40;;;;;;4288798;33;44102;-83
2022/03/26 03:35:27;;;;;;;;;;;12.00;77.10;;;;;;4288613;33;43741;-83
2022/03/26 03:37:54;;;;;;;;;;;12.00;77.20;;;;;;4301760;33;43239;-83
2022/03/26 03:40:22;;;;;;;;;;;12.00;77.30;;;;;;4301662;33;43044;-84
2022/03/26 03:42:49;;;;;;;;;;;12.00;76.90;;;;;;4289243;33;43482;-84
2022/03/26 03:45:16;;;;;;;;;;;11.90;77.10;;;;;;4289218;33;43475;-83
2022/03/26 03:47:45;;;;;;;;;;;11.90;77.40;;;;;;4301663;33;43346;-83
2022/03/26 03:50:12;;;;;;;;;;;11.90;77.60;;;;;;4301896;33;44297;-83
2022/03/26 03:52:39;;;;;;;;;;;11.90;77.50;;;;;;4301965;33;43925;-83
2022/03/26 03:55:08;;;;;;;;;;;11.80;77.70;;;;;;4288605;33;44216;-83
2022/03/26 03:57:39;;;;;;;;;;;11.90;77.60;;;;;;4288502;33;42877;-83
2022/03/26 04:00:06;;;;;;;;;;;11.80;77.80;;;;;;4288673;33;42309;-83
2022/03/26 04:02:34;;;;;;;;;;;11.80;77.70;;;;;;4288515;33;43464;-83
2022/03/26 04:05:02;;;;;;;;;;;11.80;77.80;;;;;;4288822;33;45037;-83
2022/03/26 04:07:29;;;;;;;;;;;11.70;77.50;;;;;;4288397;33;44334;-84
2022/03/26 04:09:56;;;;;;;;;;;11.70;77.80;;;;;;4288623;33;43036;-83
2022/03/26 04:12:25;;;;;;;;;;;11.70;78.00;;;;;;4288461;33;43005;-83
2022/03/26 04:14:52;;;;;;;;;;;11.70;78.10;;;;;;4301184;33;43202;-83
2022/03/26 04:17:19;;;;;;;;;;;11.60;78.50;;;;;;4301589;33;43893;-83
2022/03/26 04:19:46;;;;;;;;;;;11.60;78.10;;;;;;4288607;33;44200;-83
2022/03/26 04:22:13;;;;;;;;;;;11.60;78.60;;;;;;4301231;33;43339;-83
2022/03/26 04:24:40;;;;;;;;;;;11.60;78.50;;;;;;4301165;33;43473;-83
2022/03/26 04:27:07;;;;;;;;;;;11.50;78.40;;;;;;4301601;33;43871;-83
2022/03/26 04:29:34;;;;;;;;;;;11.50;78.40;;;;;;4288742;33;43895;-84
2022/03/26 04:32:01;;;;;;;;;;;11.50;78.70;;;;;;4301575;33;42917;-84
2022/03/26 04:34:29;;;;;;;;;;;11.50;78.70;;;;;;4287976;33;43454;-83
2022/03/26 04:36:56;;;;;;;;;;;11.50;78.40;;;;;;4301017;33;44515;-83
2022/03/26 04:39:23;;;;;;;;;;;11.50;78.40;;;;;;4287890;33;45042;-83
2022/03/26 04:41:50;;;;;;;;;;;11.50;78.10;;;;;;4300949;33;45060;-83
2022/03/26 04:44:18;;;;;;;;;;;11.60;78.30;;;;;;4300984;33;43259;-83
2022/03/26 04:46:45;;;;;;;;;;;11.60;78.50;;;;;;4299892;33;42934;-84
2022/03/26 04:49:12;;;;;;;;;;;11.60;77.90;;;;;;4301354;33;44219;-83
2022/03/26 04:51:39;;;;;;;;;;;11.60;78.10;;;;;;4301068;33;43501;-83
2022/03/26 04:54:06;;;;;;;;;;;11.60;78.30;;;;;;4300485;33;43189;-83
2022/03/26 04:56:33;;;;;;;;;;;11.60;78.50;;;;;;4301008;33;43850;-83
2022/03/26 04:59:00;;;;;;;;;;;11.50;79.20;;;;;;4301188;33;44045;-83
2022/03/26 05:01:27;;;;;;;;;;;11.50;79.20;;;;;;4288071;33;46050;-83
2022/03/26 05:03:55;;;;;;;;;;;11.60;79.30;;;;;;4301252;33;43831;-83
2022/03/26 05:06:22;;;;;;;;;;;11.60;79.30;;;;;;4300872;33;45396;-83
2022/03/26 05:08:49;;;;;;;;;;;11.60;78.50;;;;;;4300996;33;43374;-84
2022/03/26 05:11:16;;;;;;;;;;;11.50;79.00;;;;;;4301084;33;42259;-83
2022/03/26 05:13:43;;;;;;;;;;;11.50;80.20;;;;;;4300782;33;44349;-84
2022/03/26 05:16:10;;;;;;;;;;;11.50;79.20;;;;;;4301235;33;42715;-83
2022/03/26 05:18:38;;;;;;;;;;;11.50;79.00;;;;;;4300842;33;43664;-83
2022/03/26 05:21:07;;;;;;;;;;;11.50;78.40;;;;;;4300793;33;45526;-83
2022/03/26 05:23:35;;;;;;;;;;;11.40;78.50;;;;;;4299669;33;43421;-83
2022/03/26 05:26:03;;;;;;;;;;;11.40;78.50;;;;;;4288259;33;43564;-83
2022/03/26 05:28:30;;;;;;;;;;;11.30;78.80;;;;;;4300027;33;43190;-83
2022/03/26 05:30:58;;;;;;;;;;;11.30;79.40;;;;;;4301065;33;43605;-83
2022/03/26 05:33:25;;;;;;;;;;;11.30;79.40;;;;;;4300754;33;43398;-83
2022/03/26 05:35:52;;;;;;;;;;;11.30;79.30;;;;;;4302559;33;43151;-83
2022/03/26 05:38:19;;;;;;;;;;;11.30;79.10;;;;;;4303355;33;44052;-83
2022/03/26 05:40:46;;;;;;;;;;;11.20;79.60;;;;;;4290967;33;43198;-84
2022/03/26 05:43:13;;;;;;;;;;;11.20;79.80;;;;;;4290720;33;43180;-83
2022/03/26 05:45:40;;;;;;;;;;;11.20;79.60;;;;;;4303693;33;42617;-83
2022/03/26 05:48:08;;;;;;;;;;;11.20;80.00;;;;;;4303654;33;44826;-83
2022/03/26 05:50:35;;;;;;;;;;;11.20;79.80;;;;;;4303412;33;42366;-83
2022/03/26 05:53:02;;;;;;;;;;;11.20;80.20;;;;;;4303275;33;42296;-83
2022/03/26 05:55:29;;;;;;;;;;;11.20;79.90;;;;;;4302990;33;44780;-83
2022/03/26 05:57:56;;;;;;;;;;;11.10;80.10;;;;;;4303519;33;42722;-83
2022/03/26 06:00:24;;;;;;;;;;;11.10;80.20;;;;;;4302369;33;42863;-83
2022/03/26 06:02:51;;;;;;;;;;;11.10;80.20;;;;;;4303315;33;44223;-83
2022/03/26 06:05:19;;;;;;;;;;;11.10;80.60;;;;;;4303783;33;44092;-83
2022/03/26 06:07:46;;;;;;;;;;;11.10;80.70;;;;;;4289923;33;44016;-83
2022/03/26 06:10:14;;;;;;;;;;;11.10;80.70;;;;;;4302968;33;43020;-83
2022/03/26 06:12:44;;;;;;;;;;;11.10;80.90;;;;;;4303323;33;42596;-83
2022/03/26 06:15:11;;;;;;;;;;;11.00;81.70;;;;;;4289802;33;44065;-83
2022/03/26 06:17:58;;;;;;;;;;;11.00;81.30;;;;;;4303341;33;46172;-83
2022/03/26 06:20:25;;;;;;;;;;;11.00;81.10;;;;;;4302226;33;45222;-82
2022/03/26 06:22:52;;;;;;;;;;;11.00;81.30;;;;;;4290203;33;43096;-83
2022/03/26 06:25:20;;;;;;;;;;;11.00;81.50;;;;;;4303200;33;43192;-83
2022/03/26 06:27:47;;;;;;;;;;;11.00;81.80;;;;;;4303358;33;44047;-83
2022/03/26 06:30:15;;;;;;;;;;;11.00;81.70;;;;;;4302993;33;44174;-83
2022/03/26 06:32:42;;;;;;;;;;;10.90;81.90;;;;;;4301570;33;44252;-83
2022/03/26 06:35:09;;;;;;;;;;;10.90;82.00;;;;;;4302591;33;43267;-83
2022/03/26 06:37:36;;;;;;;;;;;10.90;82.10;;;;;;4302966;33;45909;-83
2022/03/26 06:40:04;;;;;;;;;;;10.90;82.20;;;;;;4302507;33;44209;-83
2022/03/26 06:42:31;;;;;;;;;;;10.90;82.50;;;;;;4289596;33;43077;-82
2022/03/26 06:44:59;;;;;;;;;;;10.90;82.70;;;;;;4302482;33;44569;-83
2022/03/26 06:47:27;;;;;;;;;;;10.90;82.80;;;;;;4302762;33;43534;-83
2022/03/26 06:49:54;;;;;;;;;;;10.80;82.80;;;;;;4302350;33;43621;-83
2022/03/26 06:52:23;;;;;;;;;;;10.80;83.00;;;;;;4289826;33;43298;-83
2022/03/26 06:54:51;;;;;;;;;;;10.90;83.30;;;;;;4289528;33;43906;-83
2022/03/26 06:57:18;;;;;;;;;;;10.90;83.60;;;;;;4302547;33;43020;-83
2022/03/26 06:59:45;;;;;;;;;;;10.80;83.70;;;;;;4289769;33;43968;-83
2022/03/26 07:02:12;;;;;;;;;;;10.90;83.80;;;;;;4302089;33;45856;-83
2022/03/26 07:04:39;;;;;;;;;;;10.90;84.00;;;;;;4302689;33;43478;-83
2022/03/26 07:07:07;;;;;;;;;;;10.90;84.30;;;;;;4289560;33;42940;-83
2022/03/26 07:09:34;;;;;;;;;;;10.90;84.50;;;;;;4289356;33;44310;-83
2022/03/26 07:12:02;;;;;;;;;;;10.90;84.70;;;;;;4301109;33;43355;-83
2022/03/26 07:14:29;;;;;;;;;;;10.90;84.50;;;;;;4289336;33;42649;-83
2022/03/26 07:16:56;;;;;;;;;;;10.90;84.10;;;;;;4302186;33;43184;-83
2022/03/26 07:19:23;;;;;;;;;;;11.00;83.60;;;;;;4301323;33;44734;-83
2022/03/26 07:21:50;;;;;;;;;;;11.00;83.80;;;;;;4289157;33;44244;-83
2022/03/26 07:24:17;;;;;;;;;;;11.00;83.90;;;;;;4289052;33;42468;-83
2022/03/26 07:26:44;;;;;;;;;;;11.00;84.70;;;;;;4301019;33;42932;-83
2022/03/26 07:29:12;;;;;;;;;;;11.10;84.60;;;;;;4289316;33;43491;-83
2022/03/26 07:31:44;;;;;;;;;;;11.10;84.30;;;;;;4302323;33;44291;-83
2022/03/26 07:34:13;;;;;;;;;;;11.10;84.70;;;;;;4302237;33;43853;-83
2022/03/26 07:36:40;;;;;;;;;;;11.10;84.40;;;;;;4288674;33;43193;-83
2022/03/26 07:39:07;;;;;;;;;;;11.20;84.30;;;;;;4301908;33;42771;-83
2022/03/26 07:41:34;;;;;;;;;;;11.20;84.30;;;;;;4301819;33;43240;-83
2022/03/26 07:44:01;;;;;;;;;;;11.20;84.30;;;;;;4289288;33;43994;-83
2022/03/26 07:46:28;;;;;;;;;;;11.20;84.20;;;;;;4302311;33;43837;-83
2022/03/26 07:48:56;;;;;;;;;;;11.20;84.30;;;;;;4300560;33;42884;-83
2022/03/26 07:51:23;;;;;;;;;;;11.30;84.50;;;;;;4288543;33;44267;-83
2022/03/26 07:53:50;;;;;;;;;;;11.30;84.40;;;;;;4288458;33;45278;-83
2022/03/26 07:56:17;;;;;;;;;;;11.30;84.40;;;;;;4300368;33;42282;-83
2022/03/26 07:58:44;;;;;;;;;;;11.30;84.30;;;;;;4301410;33;44743;-83
2022/03/26 08:01:11;;;;;;;;;;;11.30;84.40;;;;;;4301682;33;44629;-82
2022/03/26 08:03:38;;;;;;;;;;;11.40;84.50;;;;;;4301781;33;43901;-83
2022/03/26 08:06:06;;;;;;;;;;;11.40;84.60;;;;;;4288690;33;43965;-83
2022/03/26 08:08:34;;;;;;;;;;;11.40;84.80;;;;;;4288724;33;43558;-83
2022/03/26 08:11:02;;;;;;;;;;;11.40;84.60;;;;;;4300660;33;44183;-83
2022/03/26 08:13:29;;;;;;;;;;;11.40;84.60;;;;;;4288763;33;43932;-83
2022/03/26 08:15:56;;;;;;;;;;;11.40;84.60;;;;;;4288573;33;42243;-83
2022/03/26 08:18:23;;;;;;;;;;;11.40;84.60;;;;;;4301743;33;43905;-83
2022/03/26 08:20:51;;;;;;;;;;;11.50;84.30;;;;;;4301713;33;43209;-83
2022/03/26 08:23:18;;;;;;;;;;;11.50;84.30;;;;;;4301195;33;42870;-83
2022/03/26 08:28:30;;;;;;;;;;;11.50;84.20;;;;;;4301182;33;44169;-83
2022/03/26 08:30:57;;;;;;;;;;;11.50;84.20;;;;;;4301077;33;45696;-83
2022/03/26 08:33:24;;;;;;;;;;;11.50;84.00;;;;;;4301225;33;43007;-83
2022/03/26 08:35:51;;;;;;;;;;;11.60;84.20;;;;;;4300293;33;44325;-83
2022/03/26 08:38:18;;;;;;;;;;;11.60;84.50;;;;;;4288637;33;43205;-83
2022/03/26 08:40:45;;;;;;;;;;;11.60;85.60;;;;;;4288531;33;43950;-83
2022/03/26 08:43:13;;;;;;;;;;;11.60;85.00;;;;;;4301472;33;43181;-83
2022/03/26 08:45:40;;;;;;;;;;;11.60;85.40;;;;;;4288047;33;43343;-83
2022/03/26 08:48:07;;;;;;;;;;;11.70;85.60;;;;;;4301116;33;44584;-82
2022/03/26 08:50:35;;;;;;;;;;;11.60;85.60;;;;;;4288059;33;43469;-83
2022/03/26 08:53:02;;;;;;;;;;;11.70;86.10;;;;;;4288120;33;43792;-83
2022/03/26 08:55:29;;;;;;;;;;;11.70;86.00;;;;;;4301344;33;45708;-83
2022/03/26 08:57:57;;;;;;;;;;;11.70;86.00;;;;;;4301272;33;43080;-83
2022/03/26 09:00:26;;;;;;;;;;;11.70;86.10;;;;;;4299928;33;44049;-83
2022/03/26 09:02:55;;;;;;;;;;;11.80;86.00;;;;;;4301121;33;43960;-83
2022/03/26 09:05:22;;;;;;;;;;;11.80;86.20;;;;;;4300983;33;46022;-83
2022/03/26 09:07:50;;;;;;;;;;;11.70;86.10;;;;;;4301214;33;43203;-83
2022/03/26 09:10:17;;;;;;;;;;;11.80;86.20;;;;;;4303344;33;44341;-83
2022/03/26 09:12:44;;;;;;;;;;;11.80;86.10;;;;;;4291201;33;44157;-83
2022/03/26 09:15:12;;;;;;;;;;;11.80;86.20;;;;;;4302600;33;44144;-83
2022/03/26 09:17:39;;;;;;;;;;;11.80;85.80;;;;;;4291033;33;43273;-83
2022/03/26 09:20:07;;;;;;;;;;;11.90;85.80;;;;;;4304190;33;43485;-83
2022/03/26 09:22:34;;;;;;;;;;;11.80;85.80;;;;;;4290956;33;42691;-83
2022/03/26 09:25:03;;;;;;;;;;;11.90;86.60;;;;;;4304147;33;43473;-83
2022/03/26 09:27:30;;;;;;;;;;;11.90;85.70;;;;;;4304088;33;43855;-83
2022/03/26 09:29:57;;;;;;;;;;;11.90;86.10;;;;;;4303505;33;43233;-83
2022/03/26 09:32:24;;;;;;;;;;;11.90;86.20;;;;;;4302272;33;45664;-82
2022/03/26 09:34:51;;;;;;;;;;;11.90;86.20;;;;;;4303823;33;43288;-83
2022/03/26 09:37:18;;;;;;;;;;;11.90;86.10;;;;;;4303738;33;43897;-83
2022/03/26 09:39:45;;;;;;;;;;;11.90;85.80;;;;;;4290411;33;43767;-83
2022/03/26 09:42:13;;;;;;;;;;;12.00;86.10;;;;;;4303598;33;43466;-83
2022/03/26 09:44:40;;;;;;;;;;;11.90;86.00;;;;;;4303503;33;42324;-83
2022/03/26 09:47:08;;;;;;;;;;;12.00;86.50;;;;;;4290480;33;43367;-83
2022/03/26 09:49:38;;;;;;;;;;;12.00;86.10;;;;;;4290404;33;42775;-84
2022/03/26 09:52:06;;;;;;;;;;;12.00;85.60;;;;;;4303736;33;45619;-83
2022/03/26 09:54:34;;;;;;;;;;;12.00;85.20;;;;;;4290124;33;44093;-83
2022/03/26 09:57:02;;;;;;;;;;;12.10;85.10;;;;;;4303055;33;44548;-83
2022/03/26 09:59:30;;;;;;;;;;;12.10;85.00;;;;;;4303081;33;45197;-83
2022/03/26 10:01:57;;;;;;;;;;;12.10;85.10;;;;;;4287487;33;44341;-83
2022/03/26 10:04:26;;;;;;;;;;;12.10;85.00;;;;;;4288782;33;43781;-82
2022/03/26 10:06:57;;;;;;;;;;;12.10;84.90;;;;;;4287924;33;43263;-84
2022/03/26 10:09:32;;;;;;;;;;;12.10;85.00;;;;;;4289055;33;44542;-83
2022/03/26 10:12:00;;;;;;;;;;;12.20;85.10;;;;;;4287745;33;44206;-83
2022/03/26 10:14:42;;;;;;;;;;;12.20;84.90;;;;;;4287894;33;43897;-83
2022/03/26 10:17:10;;;;;;;;;;;12.20;84.50;;;;;;4288973;33;44890;-82
2022/03/26 10:19:41;;;;;;;;;;;12.20;84.10;;;;;;4287304;33;43067;-83
2022/03/26 10:22:23;;;;;;;;;;;12.30;84.10;;;;;;4299031;33;43264;-83
2022/03/26 10:24:50;;;;;;;;;;;12.30;84.20;;;;;;4288550;33;44927;-83
2022/03/26 10:27:18;;;;;;;;;;;12.40;83.90;;;;;;4287224;33;44341;-83
2022/03/26 10:29:49;;;;;;;;;;;12.40;83.60;;;;;;4288286;33;42838;-83
2022/03/26 10:32:39;;;;;;;;;;;12.40;83.60;;;;;;4287723;33;43117;-83
2022/03/26 10:35:07;;;;;;;;;;;12.40;83.40;;;;;;4287566;33;43887;-83
2022/03/26 10:37:53;;;;;;;;;;;12.40;83.60;;;;;;4287208;33;44474;-83
2022/03/26 10:40:22;;;;;;;;;;;12.40;83.80;;;;;;4288593;33;44295;-83
2022/03/26 10:42:57;;;;;;;;;;;12.50;83.70;;;;;;4299042;33;43800;-84
2022/03/26 10:45:24;;;;;;;;;;;12.50;83.50;;;;;;4287558;33;43661;-84
2022/03/26 10:47:56;;;;;;;;;;;12.50;83.30;;;;;;4288515;33;44183;-83
2022/03/26 10:50:25;;;;;;;;;;;12.50;83.20;;;;;;4288536;33;44425;-82
2022/03/26 10:52:55;;;;;;;;;;;12.60;82.60;;;;;;4299175;33;42783;-83
2022/03/26 10:55:23;;;;;;;;;;;12.60;82.60;;;;;;4288295;33;42961;-83
2022/03/26 10:57:51;;;;;;;;;;;12.60;82.40;;;;;;4286574;33;44563;-83
2022/03/26 11:00:19;;;;;;;;;;;12.70;82.10;;;;;;4286922;33;45027;-83
2022/03/26 11:02:46;;;;;;;;;;;12.70;82.10;;;;;;4297156;33;43180;-83
2022/03/26 11:05:13;;;;;;;;;;;12.70;81.90;;;;;;4289562;33;43253;-83
2022/03/26 11:07:41;;;;;;;;;;;12.70;81.90;;;;;;4302603;33;44077;-84
2022/03/26 11:10:09;;;;;;;;;;;12.70;81.90;;;;;;4302346;33;44486;-82
2022/03/26 11:12:40;;;;;;;;;;;12.80;82.20;;;;;;4289120;33;44196;-83
2022/03/26 11:15:09;;;;;;;;;;;12.80;82.10;;;;;;4301414;33;43462;-83
2022/03/26 11:17:36;;;;;;;;;;;12.80;81.50;;;;;;4289361;33;43319;-83
2022/03/26 11:20:13;;;;;;;;;;;12.90;81.30;;;;;;4289363;33;43932;-83
2022/03/26 11:22:55;;;;;;;;;;;12.90;81.10;;;;;;4302584;33;43488;-83
2022/03/26 11:25:57;;;;;;;;;;;13.00;80.80;;;;;;4302132;33;44198;-82
2022/03/26 11:28:43;;;;;;;;;;;13.00;80.80;;;;;;4243052;33;43895;-83
2022/03/26 11:31:10;;;;;;;;;;;13.00;81.00;;;;;;4297620;33;45106;-83
2022/03/26 11:33:37;;;;;;;;;;;13.00;80.60;;;;;;4288392;33;43242;-83
2022/03/26 11:36:05;;;;;;;;;;;13.00;81.00;;;;;;4302000;33;44363;-83
2022/03/26 11:38:33;;;;;;;;;;;13.10;80.20;;;;;;4288903;33;43333;-83
2022/03/26 11:41:04;;;;;;;;;;;13.10;79.70;;;;;;4302203;33;44249;-84
2022/03/26 11:43:44;;;;;;;;;;;13.20;79.50;;;;;;4302174;33;44174;-83
2022/03/26 11:52:08;;;;;;;;;;;13.30;78.70;;;;;;4301914;33;43479;-83
2022/03/26 11:54:35;;;;;;;;;;;13.30;78.30;;;;;;4295181;33;42798;-83
2022/03/26 11:57:09;;;;;;;;;;;13.30;78.70;;;;;;4288798;33;43085;-83
2022/03/26 11:59:37;;;;;;;;;;;13.30;78.40;;;;;;4301508;33;43833;-83
2022/03/26 12:02:24;;;;;;;;;;;13.40;78.20;;;;;;4285802;33;43240;-83
2022/03/26 12:04:59;;;;;;;;;;;13.40;78.50;;;;;;4297908;33;43241;-83
2022/03/26 12:07:29;;;;;;;;;;;13.40;78.20;;;;;;4287071;33;43340;-83
2022/03/26 12:10:09;;;;;;;;;;;13.50;77.50;;;;;;4287353;33;43172;-83
2022/03/26 12:12:50;;;;;;;;;;;13.50;77.00;;;;;;4286283;33;44621;-83
2022/03/26 12:15:17;;;;;;;;;;;13.50;77.70;;;;;;4286172;33;43858;-84
2022/03/26 12:17:47;;;;;;;;;;;13.50;77.60;;;;;;4287153;33;44034;-83
2022/03/26 12:20:19;;;;;;;;;;;13.60;77.30;;;;;;4286494;33;19999;-82
2022/03/26 12:22:48;;;;;;;;;;;13.60;77.00;;;;;;4286025;33;45693;-84
2022/03/26 12:25:18;;;;;;;;;;;13.70;76.50;;;;;;4286908;33;42115;-83
2022/03/26 12:27:45;;;;;;;;;;;13.70;76.10;;;;;;4286700;33;43254;-83
2022/03/26 12:30:14;;;;;;;;;;;13.70;76.40;;;;;;4285802;33;43270;-83
2022/03/26 12:32:41;;;;;;;;;;;13.70;76.20;;;;;;4286147;33;43947;-83
2022/03/26 12:35:09;;;;;;;;;;;13.80;76.00;;;;;;4286035;33;43046;-83
2022/03/26 12:37:37;;;;;;;;;;;13.80;76.50;;;;;;4285420;33;43487;-83
2022/03/26 12:40:05;;;;;;;;;;;13.80;76.10;;;;;;4285822;33;43900;-84
2022/03/26 12:42:33;;;;;;;;;;;13.80;76.00;;;;;;4285762;33;42758;-83
2022/03/26 12:45:00;;;;;;;;;;;13.90;76.20;;;;;;4286719;33;43919;-83
2022/03/26 12:47:27;;;;;;;;;;;13.90;76.50;;;;;;4297454;33;42951;-83
2022/03/26 12:49:54;;;;;;;;;;;13.90;76.80;;;;;;4286553;33;43383;-84
2022/03/26 12:52:22;;;;;;;;;;;13.90;76.20;;;;;;4285484;33;43005;-83
2022/03/26 12:54:53;;;;;;;;;;;14.00;75.60;;;;;;4285564;33;42771;-84
2022/03/26 12:57:20;;;;;;;;;;;14.00;75.30;;;;;;4285609;33;42952;-83
2022/03/26 12:59:54;;;;;;;;;;;14.10;75.20;;;;;;4285696;33;44289;-83
2022/03/26 13:02:21;;;;;;;;;;;14.10;75.10;;;;;;4285531;33;44091;-84
2022/03/26 13:04:55;;;;;;;;;;;14.10;75.00;;;;;;4285924;33;43482;-85
2022/03/26 13:07:22;;;;;;;;;;;14.20;74.70;;;;;;4287054;33;43481;-83
2022/03/26 13:09:53;;;;;;;;;;;14.20;73.90;;;;;;4286607;33;44121;-84
2022/03/26 13:12:27;;;;;;;;;;;14.20;74.10;;;;;;4286449;33;44077;-83
2022/03/26 13:14:54;;;;;;;;;;;14.30;74.40;;;;;;4286831;33;43282;-84
2022/03/26 13:17:22;;;;;;;;;;;14.30;74.60;;;;;;4285235;33;43023;-83
2022/03/26 13:19:49;;;;;;;;;;;14.30;74.60;;;;;;4286928;33;44058;-84
2022/03/26 13:22:17;;;;;;;;;;;14.40;74.30;;;;;;4286523;33;45998;-83
2022/03/26 13:24:50;;;;;;;;;;;14.40;74.50;;;;;;4297457;33;43963;-84
2022/03/26 13:27:18;;;;;;;;;;;14.40;74.60;;;;;;4285586;33;43009;-84
2022/03/26 13:29:46;;;;;;;;;;;14.50;74.90;;;;;;4286726;33;42831;-85
2022/03/26 13:32:13;;;;;;;;;;;14.50;75.10;;;;;;4285448;33;43455;-83
2022/03/26 13:34:41;;;;;;;;;;;14.50;75.10;;;;;;4286407;33;43771;-83
2022/03/26 13:37:16;;;;;;;;;;;14.50;74.50;;;;;;4285621;33;43480;-83
2022/03/26 13:39:44;;;;;;;;;;;14.60;74.00;;;;;;4286869;33;43339;-84
2022/03/26 13:42:15;;;;;;;;;;;14.60;73.70;;;;;;4286187;33;43003;-84
2022/03/26 13:44:43;;;;;;;;;;;14.60;73.60;;;;;;4286363;33;44168;-84
2022/03/26 13:47:17;;;;;;;;;;;14.70;73.50;;;;;;4286178;33;44112;-84
2022/03/26 13:49:45;;;;;;;;;;;14.70;73.80;;;;;;4285159;33;42926;-83
2022/03/26 13:52:29;;;;;;;;;;;14.70;73.80;;;;;;4286144;33;43042;-84
2022/03/26 13:54:56;;;;;;;;;;;14.70;73.00;;;;;;4285446;33;44188;-84
2022/03/26 13:57:29;;;;;;;;;;;14.80;73.70;;;;;;4287069;33;43859;-85
2022/03/26 13:59:56;;;;;;;;;;;14.80;73.40;;;;;;4287886;33;43199;-84
2022/03/26 14:02:25;;;;;;;;;;;14.80;72.80;;;;;;4287502;33;43168;-83
2022/03/26 14:04:52;;;;;;;;;;;14.80;72.80;;;;;;4289020;33;43819;-83
2022/03/26 14:07:19;;;;;;;;;;;14.90;72.80;;;;;;4288576;33;43513;-84
2022/03/26 14:09:53;;;;;;;;;;;14.90;72.70;;;;;;4288902;33;43188;-84
2022/03/26 14:12:20;;;;;;;;;;;15.00;72.80;;;;;;4288962;33;43066;-84
2022/03/26 14:14:47;;;;;;;;;;;14.90;72.50;;;;;;4287404;33;43336;-84
2022/03/26 14:17:14;;;;;;;;;;;15.00;72.40;;;;;;4287334;33;44773;-83
2022/03/26 14:19:41;;;;;;;;;;;15.00;73.10;;;;;;4299705;33;44213;-84
2022/03/26 14:22:09;;;;;;;;;;;15.00;72.80;;;;;;4288834;33;42483;-85
2022/03/26 14:24:36;;;;;;;;;;;15.00;72.80;;;;;;4287480;33;44103;-85
2022/03/26 14:27:04;;;;;;;;;;;15.10;72.40;;;;;;4287356;33;42969;-84
2022/03/26 14:29:31;;;;;;;;;;;15.10;72.00;;;;;;4299226;33;42868;-84
2022/03/26 14:31:58;;;;;;;;;;;15.10;71.70;;;;;;4287561;33;43409;-84